Terminal Aerodrome Forecast
Issued by NWS

Home | Current Version | Previous Version | Text Only | Print | Product List | Glossary On
Versions: 1 2 3 4 5 6 7 8 9 10 11 12 13 14 15
271
FTUS44 KCRP 300530
TAFLRD
TAF
KLRD 300530Z 3006/3106 35012KT P6SM SCT180
     FM310000 14006KT P6SM SKC=

USA.gov is the U.S. government's official web portal to all federal, state and local government web resources and services.